createdAt,value
2019-03-10T00:00:51.196Z,74.16
2019-03-10T00:03:24.853Z,73.69
2019-03-10T00:05:56.440Z,72.95
2019-03-10T00:08:29.149Z,73.26
2019-03-10T00:10:59.661Z,71.96
2019-03-10T00:13:30.202Z,70.73
2019-03-10T00:16:00.715Z,70.18
2019-03-10T00:18:31.254Z,70.87
2019-03-10T00:21:02.692Z,71.85
2019-03-10T00:23:33.223Z,72.45
2019-03-10T00:26:03.746Z,72.27
2019-03-10T00:28:35.525Z,72.71
2019-03-10T00:31:06.963Z,72.63
2019-03-10T00:33:37.510Z,72.17
2019-03-10T00:36:08.020Z,71.90
2019-03-10T00:38:50.786Z,71.76
2019-03-10T00:41:32.887Z,72.28
2019-03-10T00:44:29.308Z,71.10
2019-03-10T00:47:05.506Z,72.09
2019-03-10T00:50:03.949Z,71.25
2019-03-10T00:52:46.265Z,71.11
2019-03-10T00:55:16.580Z,69.87
2019-03-10T00:57:46.902Z,70.78
2019-03-10T01:00:18.535Z,70.05
2019-03-10T01:02:48.857Z,69.34
2019-03-10T01:05:20.324Z,70.14
2019-03-10T01:07:51.144Z,70.30
2019-03-10T01:10:22.306Z,69.53
2019-03-10T01:12:54.657Z,70.11
2019-03-10T01:15:24.909Z,70.00
2019-03-10T01:17:57.550Z,70.10
2019-03-10T01:20:27.982Z,70.35
2019-03-10T01:22:59.306Z,70.03
2019-03-10T01:25:30.838Z,70.26
2019-03-10T01:28:01.217Z,71.00
2019-03-10T01:30:34.734Z,70.26
2019-03-10T01:33:30.797Z,70.73
2019-03-10T01:36:01.095Z,70.79
2019-03-10T01:38:31.339Z,69.96
2019-03-10T01:41:02.770Z,69.85
2019-03-10T01:43:33.895Z,69.79
2019-03-10T01:46:04.186Z,69.25
2019-03-10T01:48:34.643Z,70.19
2019-03-10T01:51:06.108Z,70.23
2019-03-10T01:53:37.547Z,70.12
2019-03-10T01:56:08.769Z,69.93
2019-03-10T01:58:39.214Z,69.93
2019-03-10T02:01:09.468Z,69.48
2019-03-10T02:03:40.894Z,69.64
2019-03-10T02:06:12.352Z,70.08
2019-03-10T02:08:42.872Z,69.79
2019-03-10T02:11:14.331Z,69.73
2019-03-10T02:13:45.774Z,69.74
2019-03-10T02:16:16.030Z,69.69
2019-03-10T02:18:47.454Z,69.55
2019-03-10T02:21:17.989Z,69.52
2019-03-10T02:23:49.128Z,69.62
2019-03-10T02:26:19.659Z,69.87
2019-03-10T02:28:51.109Z,69.79
2019-03-10T02:31:22.582Z,69.79
2019-03-10T02:33:53.088Z,70.04
2019-03-10T02:36:24.547Z,69.37
2019-03-10T02:38:56.041Z,69.56
2019-03-10T02:41:27.462Z,69.51
2019-03-10T02:43:58.884Z,69.84
2019-03-10T02:46:31.132Z,70.18
2019-03-10T02:49:03.640Z,69.89
2019-03-10T02:51:33.895Z,70.24
2019-03-10T02:54:04.394Z,70.58
2019-03-10T02:56:34.676Z,70.71
2019-03-10T02:59:06.060Z,70.65
2019-03-10T03:01:37.840Z,71.22
2019-03-10T03:04:09.286Z,71.08
2019-03-10T03:06:41.285Z,71.05
2019-03-10T03:09:11.567Z,71.04
2019-03-10T03:11:41.820Z,71.53
2019-03-10T03:14:12.055Z,71.55
2019-03-10T03:16:43.777Z,71.13
2019-03-10T03:19:15.206Z,70.97
2019-03-10T03:21:45.461Z,70.74
2019-03-10T03:24:16.593Z,70.72
2019-03-10T03:26:48.045Z,70.90
2019-03-10T03:29:19.493Z,70.89
2019-03-10T03:31:49.735Z,71.14
2019-03-10T03:34:21.169Z,70.82
2019-03-10T03:36:52.625Z,70.87
2019-03-10T03:39:27.593Z,70.64
2019-03-10T03:41:57.982Z,70.63
2019-03-10T03:44:29.420Z,70.80
2019-03-10T03:46:59.677Z,70.75
2019-03-10T03:49:31.093Z,70.32
2019-03-10T03:52:02.566Z,70.61
2019-03-10T03:54:33.068Z,70.12
2019-03-10T03:57:04.549Z,70.00
2019-03-10T03:59:35.161Z,70.14
2019-03-10T04:02:07.234Z,69.72
2019-03-10T04:04:37.662Z,70.01
2019-03-10T04:07:08.196Z,69.96
2019-03-10T04:09:40.549Z,69.94
2019-03-10T04:12:10.814Z,69.94
2019-03-10T04:14:42.227Z,70.43
2019-03-10T04:17:13.688Z,70.19
2019-03-10T04:19:45.134Z,70.21
2019-03-10T04:22:15.386Z,70.56
2019-03-10T04:24:45.881Z,70.91
2019-03-10T04:27:17.351Z,71.09
2019-03-10T04:29:48.474Z,71.42
2019-03-10T04:32:18.725Z,71.74
2019-03-10T04:34:52.309Z,72.04
2019-03-10T04:37:23.773Z,72.33
2019-03-10T04:39:54.283Z,72.38
2019-03-10T04:42:24.548Z,72.55
2019-03-10T04:44:54.791Z,72.87
2019-03-10T04:47:26.203Z,73.20
2019-03-10T04:49:56.705Z,73.39
2019-03-10T04:52:27.030Z,73.36
2019-03-10T04:55:07.845Z,73.67
2019-03-10T04:57:39.775Z,73.80
2019-03-10T05:00:10.151Z,74.09
2019-03-10T05:02:40.733Z,74.21
2019-03-10T05:05:12.166Z,74.36
2019-03-10T05:07:43.333Z,74.44
2019-03-10T05:10:14.767Z,74.52
2019-03-10T05:12:45.041Z,74.64
2019-03-10T05:15:16.752Z,74.65
2019-03-10T05:17:50.137Z,74.58
2019-03-10T05:20:20.633Z,74.56
2019-03-10T05:22:50.827Z,74.56
2019-03-10T05:25:23.560Z,74.46
2019-03-10T05:27:54.012Z,74.31
2019-03-10T05:30:24.249Z,74.08
2019-03-10T05:32:55.692Z,74.08
2019-03-10T05:35:26.205Z,74.12
2019-03-10T05:37:57.672Z,73.82
2019-03-10T05:40:29.109Z,73.61
2019-03-10T05:43:01.496Z,73.27
2019-03-10T05:45:32.937Z,73.05
2019-03-10T05:48:03.478Z,73.08
2019-03-10T05:50:36.455Z,72.96
2019-03-10T05:53:09.160Z,72.47
2019-03-10T05:55:40.585Z,72.37
2019-03-10T05:58:10.841Z,71.90
2019-03-10T06:00:43.424Z,71.66
2019-03-10T06:03:15.271Z,71.03
2019-03-10T06:05:47.637Z,70.83
2019-03-10T06:08:18.169Z,70.11
2019-03-10T06:10:48.698Z,69.42
2019-03-10T06:13:19.220Z,68.94
2019-03-10T06:15:49.745Z,68.40
2019-03-10T06:18:21.205Z,65.69
2019-03-10T06:20:52.640Z,54.88
2019-03-10T06:23:22.904Z,51.75
2019-03-10T06:25:54.017Z,49.83
2019-03-10T06:28:25.481Z,44.94
2019-03-10T06:30:56.920Z,42.91
2019-03-10T06:33:28.374Z,40.35
2019-03-10T06:35:59.196Z,39.10
2019-03-10T06:38:30.670Z,40.59
2019-03-10T06:41:01.182Z,36.89
2019-03-10T06:43:32.652Z,38.69
2019-03-10T06:46:04.093Z,45.45
2019-03-10T06:48:35.533Z,46.64
2019-03-10T06:51:05.783Z,49.51
2019-03-10T06:53:37.208Z,53.57
2019-03-10T06:56:07.468Z,56.80
2019-03-10T06:58:38.880Z,58.75
2019-03-10T07:01:09.118Z,60.53
2019-03-10T07:03:40.553Z,62.31
2019-03-10T07:06:10.798Z,63.01
2019-03-10T07:08:41.044Z,63.15
2019-03-10T07:11:12.455Z,63.69
2019-03-10T07:13:43.000Z,63.86
2019-03-10T07:16:14.435Z,63.83
2019-03-10T07:18:45.956Z,63.86
2019-03-10T07:21:16.411Z,63.44
2019-03-10T07:23:46.660Z,62.51
2019-03-10T07:26:17.790Z,60.38
2019-03-10T07:29:04.637Z,60.52
2019-03-10T07:31:43.562Z,59.05
2019-03-10T07:34:15.600Z,58.67
2019-03-10T07:36:47.652Z,55.86
2019-03-10T07:39:34.591Z,55.61
2019-03-10T07:42:09.258Z,51.65
2019-03-10T07:44:59.433Z,47.01
2019-03-10T07:47:41.495Z,48.77
2019-03-10T07:50:22.180Z,48.20
2019-03-10T07:53:13.286Z,46.11
2019-03-10T07:55:54.158Z,45.19
2019-03-10T07:58:43.416Z,48.53
2019-03-10T08:01:17.092Z,44.61
2019-03-10T08:03:51.777Z,51.50
2019-03-10T08:06:32.078Z,50.49
2019-03-10T08:09:07.345Z,51.58
2019-03-10T08:11:42.652Z,52.63
2019-03-10T08:14:20.258Z,50.84
2019-03-10T08:16:53.378Z,46.12
2019-03-10T08:19:37.271Z,43.12
2019-03-10T08:22:18.470Z,41.74
2019-03-10T08:25:03.827Z,39.61
2019-03-10T08:27:36.679Z,38.46
2019-03-10T08:30:11.336Z,38.23
2019-03-10T08:32:57.053Z,36.69
2019-03-10T08:35:34.969Z,36.72
2019-03-10T08:38:23.441Z,37.31
2019-03-10T08:40:55.393Z,37.21
2019-03-10T08:43:30.140Z,38.91
2019-03-10T08:46:10.227Z,39.00
2019-03-10T08:48:51.018Z,41.76
2019-03-10T08:51:23.013Z,40.68
2019-03-10T08:53:55.063Z,44.83
2019-03-10T08:56:27.126Z,48.76
2019-03-10T08:59:15.279Z,49.89
2019-03-10T09:01:47.544Z,50.07
2019-03-10T09:04:34.457Z,51.13
2019-03-10T09:07:21.624Z,51.93
2019-03-10T09:10:06.926Z,51.67
2019-03-10T09:12:38.783Z,51.65
2019-03-10T09:15:27.048Z,52.17
2019-03-10T09:17:59.040Z,52.93
2019-03-10T09:20:49.889Z,53.37
2019-03-10T09:23:35.079Z,53.12
2019-03-10T09:26:08.295Z,52.66
2019-03-10T09:28:40.363Z,52.97
2019-03-10T09:31:28.876Z,51.12
2019-03-10T09:34:14.420Z,50.04
2019-03-10T09:36:48.483Z,49.70
2019-03-10T09:39:20.583Z,50.12
2019-03-10T09:42:01.760Z,49.19
2019-03-10T09:44:38.379Z,47.75
2019-03-10T09:47:26.777Z,48.27
2019-03-10T09:49:59.147Z,49.34
2019-03-10T09:52:31.328Z,48.42
2019-03-10T09:55:03.502Z,49.30
2019-03-10T09:57:46.504Z,50.65
2019-03-10T10:00:18.603Z,48.60
2019-03-10T10:02:51.103Z,48.98
2019-03-10T10:05:26.027Z,50.46
2019-03-10T10:08:04.491Z,50.92
2019-03-10T10:10:39.051Z,50.40
2019-03-10T10:13:28.413Z,50.77
2019-03-10T10:16:15.931Z,51.41
2019-03-10T10:18:48.634Z,50.77
2019-03-10T10:21:22.009Z,50.82
2019-03-10T10:24:09.531Z,51.08
2019-03-10T10:26:57.587Z,51.23
2019-03-10T10:29:32.705Z,51.24
2019-03-10T10:32:10.937Z,50.06
2019-03-10T10:34:45.980Z,50.95
2019-03-10T10:37:21.518Z,50.77
2019-03-10T10:40:11.827Z,51.14
2019-03-10T10:43:00.553Z,50.34
2019-03-10T10:45:50.388Z,50.14
2019-03-10T10:48:25.154Z,48.48
2019-03-10T10:51:10.688Z,48.30
2019-03-10T10:53:52.258Z,47.85
2019-03-10T10:56:33.737Z,47.38
2019-03-10T10:59:09.375Z,48.10
2019-03-10T11:01:46.727Z,46.68
2019-03-10T11:04:20.166Z,47.03
2019-03-10T11:06:52.219Z,47.94
2019-03-10T11:09:27.221Z,48.35
2019-03-10T11:12:06.382Z,48.70
2019-03-10T11:14:38.300Z,47.47
2019-03-10T11:17:22.330Z,46.99
2019-03-10T11:20:09.505Z,46.90
2019-03-10T11:22:45.353Z,46.51
2019-03-10T11:25:18.481Z,46.51
2019-03-10T11:27:50.523Z,46.25
2019-03-10T11:30:25.523Z,45.05
2019-03-10T11:33:13.863Z,45.06
2019-03-10T11:36:03.676Z,45.32
2019-03-10T11:38:38.546Z,44.57
2019-03-10T11:41:33.691Z,44.70
2019-03-10T11:44:18.319Z,45.20
2019-03-10T11:47:07.833Z,44.64
2019-03-10T11:49:40.798Z,46.10
2019-03-10T11:52:13.095Z,46.78
2019-03-10T11:54:57.010Z,47.75
2019-03-10T11:57:30.200Z,47.85
2019-03-10T12:00:07.929Z,47.83
2019-03-10T12:02:43.770Z,47.93
2019-03-10T12:05:20.056Z,49.00
2019-03-10T12:07:53.172Z,47.41
2019-03-10T12:10:23.605Z,46.62
2019-03-10T12:12:55.348Z,45.61
2019-03-10T12:15:25.889Z,45.40
2019-03-10T12:17:57.345Z,45.74
2019-03-10T12:20:28.794Z,46.44
2019-03-10T12:22:59.318Z,46.61
2019-03-10T12:25:30.795Z,47.04
2019-03-10T12:28:01.329Z,46.49
2019-03-10T12:30:33.054Z,46.79
2019-03-10T12:33:03.593Z,46.13
2019-03-10T12:35:34.889Z,46.69
2019-03-10T12:38:06.788Z,46.11
2019-03-10T12:40:38.244Z,46.79
2019-03-10T12:43:10.004Z,46.08
2019-03-10T12:45:41.478Z,45.38
2019-03-10T12:48:12.935Z,45.19
2019-03-10T12:50:45.018Z,44.72
2019-03-10T12:53:15.497Z,44.65
2019-03-10T12:55:46.052Z,44.99
2019-03-10T12:58:17.821Z,45.59
2019-03-10T13:00:49.860Z,43.93
2019-03-10T13:03:21.339Z,45.14
2019-03-10T13:05:55.263Z,45.42
2019-03-10T13:08:25.556Z,46.02
2019-03-10T13:10:56.357Z,46.19
2019-03-10T13:13:28.047Z,42.10
2019-03-10T13:15:59.531Z,42.40
2019-03-10T13:18:30.101Z,42.87
2019-03-10T13:21:00.572Z,44.73
2019-03-10T13:23:32.014Z,43.56
2019-03-10T13:26:03.493Z,42.03
2019-03-10T13:28:36.661Z,42.11
2019-03-10T13:31:09.182Z,42.91
2019-03-10T13:33:40.886Z,43.20
2019-03-10T13:36:11.417Z,44.51
2019-03-10T13:38:43.494Z,47.13
2019-03-10T13:41:14.096Z,50.71
2019-03-10T13:43:46.794Z,52.35
2019-03-10T13:46:17.286Z,55.08
2019-03-10T13:48:47.742Z,55.60
2019-03-10T13:51:18.290Z,56.22
2019-03-10T13:53:48.812Z,58.36
2019-03-10T13:56:20.262Z,58.08
2019-03-10T13:58:50.769Z,57.10
2019-03-10T14:01:21.349Z,57.49
2019-03-10T14:03:51.840Z,57.81
2019-03-10T14:06:23.312Z,59.77
2019-03-10T14:08:55.287Z,60.53
2019-03-10T14:11:25.614Z,61.39
2019-03-10T14:13:58.272Z,63.12
2019-03-10T14:16:28.812Z,65.20
2019-03-10T14:18:59.722Z,63.89
2019-03-10T14:21:32.356Z,65.23
2019-03-10T14:24:04.084Z,65.89
2019-03-10T14:26:34.610Z,65.89
2019-03-10T14:29:05.145Z,64.95
2019-03-10T14:31:35.675Z,66.83
2019-03-10T14:34:07.105Z,66.03
2019-03-10T14:36:37.739Z,66.13
2019-03-10T14:39:08.439Z,65.98
2019-03-10T14:41:41.786Z,66.54
2019-03-10T14:44:13.243Z,66.98
2019-03-10T14:46:46.972Z,67.17
2019-03-10T14:49:23.075Z,67.88
2019-03-10T14:51:49.422Z,67.76
2019-03-10T14:54:22.220Z,68.72
2019-03-10T14:56:52.626Z,68.23
2019-03-10T14:59:24.103Z,69.36
2019-03-10T15:01:54.632Z,68.89
2019-03-10T15:04:25.139Z,69.63
2019-03-10T15:06:56.599Z,68.87
2019-03-10T15:09:27.117Z,69.80
2019-03-10T15:11:58.571Z,70.71
2019-03-10T15:14:29.192Z,69.80
2019-03-10T15:17:02.316Z,71.81
2019-03-10T15:19:32.629Z,71.31
2019-03-10T15:22:03.144Z,71.67
2019-03-10T15:24:34.617Z,70.46
2019-03-10T15:27:05.755Z,71.19
2019-03-10T15:29:36.315Z,71.73
2019-03-10T15:32:06.821Z,71.51
2019-03-10T15:34:39.810Z,70.55
2019-03-10T15:37:11.014Z,71.17
2019-03-10T15:39:41.473Z,72.55
2019-03-10T15:42:11.993Z,71.50
2019-03-10T15:44:42.521Z,73.03
2019-03-10T15:47:13.980Z,72.73
2019-03-10T15:49:45.451Z,74.20
2019-03-10T15:52:16.888Z,72.06
2019-03-10T15:54:47.415Z,73.46
2019-03-10T15:57:17.951Z,73.00
2019-03-10T15:59:49.715Z,71.64
2019-03-10T16:02:20.238Z,73.00
2019-03-10T16:04:50.777Z,72.02
2019-03-10T16:07:21.308Z,72.29
2019-03-10T16:09:51.828Z,71.06
2019-03-10T16:12:23.291Z,71.48
2019-03-10T16:14:53.801Z,72.46
2019-03-10T16:17:26.171Z,72.72
2019-03-10T16:19:58.097Z,73.52
2019-03-10T16:22:28.459Z,73.92
2019-03-10T16:25:00.458Z,74.76
2019-03-10T16:27:31.056Z,75.42
2019-03-10T16:30:01.572Z,74.84
2019-03-10T16:32:33.952Z,74.16
2019-03-10T16:35:07.634Z,75.17
2019-03-10T16:37:39.316Z,75.12
2019-03-10T16:40:20.756Z,75.15
2019-03-10T16:42:52.083Z,75.64
2019-03-10T16:45:26.073Z,75.86
2019-03-10T16:47:57.817Z,75.88
2019-03-10T16:50:29.946Z,75.67
2019-03-10T16:53:00.319Z,75.86
2019-03-10T16:55:30.857Z,76.14
2019-03-10T16:58:02.607Z,75.71
2019-03-10T17:00:33.217Z,75.91
2019-03-10T17:03:06.865Z,76.58
2019-03-10T17:05:40.850Z,76.79
2019-03-10T17:08:16.128Z,77.22
2019-03-10T17:10:48.758Z,77.39
2019-03-10T17:13:20.221Z,77.71
2019-03-10T17:15:51.674Z,78.17
2019-03-10T17:18:22.238Z,77.99
2019-03-10T17:20:52.773Z,77.68
2019-03-10T17:23:24.225Z,77.30
2019-03-10T17:25:56.617Z,77.40
2019-03-10T17:28:30.323Z,77.65
2019-03-10T17:31:03.172Z,77.99
2019-03-10T17:33:33.878Z,78.33
2019-03-10T17:36:05.177Z,78.88
2019-03-10T17:38:36.629Z,79.45
2019-03-10T17:41:07.110Z,80.10
2019-03-10T17:43:38.111Z,80.33
2019-03-10T17:46:08.479Z,80.73
2019-03-10T17:48:39.931Z,80.88
2019-03-10T17:51:12.690Z,81.14
2019-03-10T17:53:45.455Z,80.49
2019-03-10T17:56:20.905Z,80.89
2019-03-10T17:58:55.222Z,80.75
2019-03-10T18:01:27.924Z,80.05
2019-03-10T18:04:00.478Z,80.71
2019-03-10T18:06:39.469Z,81.30
2019-03-10T18:09:23.178Z,81.86
2019-03-10T18:11:59.366Z,82.65
2019-03-10T18:14:30.858Z,82.43
2019-03-10T18:17:02.625Z,81.97
2019-03-10T18:19:33.442Z,81.89
2019-03-10T18:22:03.818Z,82.32
2019-03-10T18:24:35.266Z,82.36
2019-03-10T18:27:07.354Z,82.70
2019-03-10T18:29:37.849Z,82.22
2019-03-10T18:32:10.090Z,82.05
2019-03-10T18:34:47.041Z,81.78
2019-03-10T18:37:20.890Z,81.95
2019-03-10T18:39:51.361Z,81.78
2019-03-10T18:42:23.580Z,82.00
2019-03-10T18:44:54.585Z,81.99
2019-03-10T18:47:25.116Z,82.01
2019-03-10T18:49:57.495Z,81.92
2019-03-10T18:52:29.956Z,81.70
2019-03-10T18:55:03.001Z,81.63
2019-03-10T18:57:35.031Z,81.82
2019-03-10T19:00:10.155Z,81.74
2019-03-10T19:02:44.492Z,81.35
2019-03-10T19:05:16.783Z,81.09
2019-03-10T19:07:49.796Z,81.30
2019-03-10T19:10:21.398Z,81.20
2019-03-10T19:12:52.522Z,81.18
2019-03-10T19:15:27.756Z,80.93
2019-03-10T19:18:02.261Z,80.71
2019-03-10T19:20:37.369Z,80.78
2019-03-10T19:23:08.807Z,80.98
2019-03-10T19:25:44.059Z,80.88
2019-03-10T19:28:15.394Z,81.29
2019-03-10T19:30:45.870Z,81.50
2019-03-10T19:33:16.609Z,81.78
2019-03-10T19:35:48.618Z,81.94
2019-03-10T19:38:20.498Z,82.52
2019-03-10T19:40:53.079Z,82.62
2019-03-10T19:43:23.446Z,82.87
2019-03-10T19:45:55.218Z,83.55
2019-03-10T19:48:25.738Z,84.12
2019-03-10T19:50:56.261Z,84.20
2019-03-10T19:53:35.056Z,84.40
2019-03-10T19:56:06.247Z,84.35
2019-03-10T19:58:41.398Z,84.98
2019-03-10T20:01:11.998Z,84.65
2019-03-10T20:03:43.943Z,84.83
2019-03-10T20:06:15.670Z,85.17
2019-03-10T20:08:46.502Z,85.54
2019-03-10T20:11:17.314Z,85.79
2019-03-10T20:13:49.279Z,85.83
2019-03-10T20:16:20.790Z,86.14
2019-03-10T20:18:51.323Z,85.93
2019-03-10T20:21:21.742Z,86.40
2019-03-10T20:23:52.963Z,86.50
2019-03-10T20:26:24.353Z,86.75
2019-03-10T20:28:59.755Z,86.83
2019-03-10T20:31:32.793Z,87.13
2019-03-10T20:34:05.771Z,87.22
2019-03-10T20:36:38.432Z,87.21
2019-03-10T20:39:10.721Z,87.56
2019-03-10T20:41:42.296Z,87.66
2019-03-10T20:44:13.072Z,87.74
2019-03-10T20:46:44.949Z,87.62
2019-03-10T20:49:17.595Z,87.28
2019-03-10T20:51:49.549Z,87.50
2019-03-10T20:54:26.176Z,86.98
2019-03-10T20:57:00.489Z,87.00
2019-03-10T20:59:32.658Z,87.04
2019-03-10T21:02:05.157Z,86.41
2019-03-10T21:04:36.118Z,87.03
2019-03-10T21:07:06.581Z,86.20
2019-03-10T21:09:42.050Z,86.95
2019-03-10T21:12:20.713Z,86.43
2019-03-10T21:14:54.704Z,86.75
2019-03-10T21:17:25.744Z,86.72
2019-03-10T21:20:04.556Z,86.71
2019-03-10T21:22:37.339Z,86.68
2019-03-10T21:25:11.173Z,86.85
2019-03-10T21:27:43.427Z,86.83
2019-03-10T21:30:19.985Z,86.41
2019-03-10T21:32:51.865Z,86.58
2019-03-10T21:35:33.073Z,87.24
2019-03-10T21:38:05.657Z,87.19
2019-03-10T21:40:37.165Z,87.09
2019-03-10T21:43:07.685Z,87.34
2019-03-10T21:45:42.210Z,87.58
2019-03-10T21:48:13.250Z,87.60
2019-03-10T21:50:47.872Z,87.56
2019-03-10T21:53:21.457Z,87.50
2019-03-10T21:55:54.635Z,87.63
2019-03-10T21:58:26.602Z,87.63
2019-03-10T22:00:58.620Z,87.84
2019-03-10T22:03:31.354Z,87.87
2019-03-10T22:06:03.033Z,87.93
2019-03-10T22:08:33.806Z,88.06
2019-03-10T22:11:05.312Z,88.23
2019-03-10T22:13:46.324Z,88.23
2019-03-10T22:16:09.226Z,88.36
2019-03-10T22:18:39.731Z,88.21
2019-03-10T22:21:13.763Z,87.68
2019-03-10T22:23:45.759Z,87.68
2019-03-10T22:26:22.375Z,88.26
2019-03-10T22:28:52.891Z,88.26
2019-03-10T22:31:30.689Z,88.06
2019-03-10T22:34:07.274Z,87.92
2019-03-10T22:36:42.449Z,87.77
2019-03-10T22:39:21.291Z,88.00
2019-03-10T22:41:55.278Z,87.66
2019-03-10T22:44:26.743Z,87.84
2019-03-10T22:46:57.261Z,87.83
2019-03-10T22:49:28.831Z,87.54
2019-03-10T22:52:02.123Z,87.55
2019-03-10T22:54:33.777Z,87.60
2019-03-10T22:57:04.027Z,87.56
2019-03-10T22:59:41.559Z,87.84
2019-03-10T23:02:12.731Z,87.84
2019-03-10T23:04:44.495Z,88.04
2019-03-10T23:07:16.410Z,87.82
2019-03-10T23:09:52.755Z,87.70
2019-03-10T23:12:30.709Z,87.80
2019-03-10T23:15:12.087Z,88.06
2019-03-10T23:17:48.489Z,88.06
2019-03-10T23:20:24.382Z,88.33
2019-03-10T23:23:11.361Z,88.14
2019-03-10T23:25:51.846Z,88.39
2019-03-10T23:28:35.561Z,88.26
2019-03-10T23:31:17.874Z,88.06
2019-03-10T23:33:54.014Z,88.04
2019-03-10T23:36:24.258Z,88.14
2019-03-10T23:38:56.605Z,88.08
2019-03-10T23:41:28.986Z,88.31
2019-03-10T23:43:59.227Z,87.91
2019-03-10T23:46:30.658Z,87.85
2019-03-10T23:49:00.912Z,88.00
2019-03-10T23:51:31.409Z,88.06
2019-03-10T23:54:01.648Z,88.06
2019-03-10T23:56:32.162Z,88.18
2019-03-10T23:59:03.614Z,88.18
